La Fayette, Kentucky
Current Conditions -  °F | °C
As of 12:04 AM on Monday 26 Jan 2015 (Local Time) from KHOP Reporting Station
Overcast Overcast  
Wind Chill: 30°   Ceiling: 600
Heat Index: 39°   Visibility: 10mi
Dew Point: 37°   Wind: 17mph
Humidity: 93%   Direction: 320°NW
Pressure: 29.8"   Gusts: 23mph
Location:  36.66°N, 87.66°W
Report Text: KHOP 260604Z AUTO 32015G20KT 10SM OVC006 04/03 A2980 RMK AO2 CIG 006V008
Loading
Personal Weather Stations






























Interactive Weather Map New forecast layout! Learn more

10-Day Weather Forecast

Advertisements
Track Severe Weather on mobile